Terminal Aerodrome Forecast
Issued by NWS

Home | Current Version | Previous Version | Text Only | Print | Product List | Glossary On
Versions: 1 2 3 4 5 6 7 8 9 10 11 12 13 14 15 16 17 18 19 20 21
000
FTUS45 KREV 220500
TAFRNO
TAF
KRNO 220523Z 2206/2306 VRB04KT P6SM SCT200
     FM221700 16008KT 5SM HZ SCT200
     FM222200 27009KT 2SM FU HZ FEW100 SCT200
     FM230500 VRB04KT 5SM HZ SCT200=

USA.gov is the U.S. government's official web portal to all federal, state and local government web resources and services.